createdAt,value
2023-05-21T00:02:05.354Z,82.22
2023-05-21T00:05:13.761Z,82.25
2023-05-21T00:08:16.857Z,83.84
2023-05-21T00:11:19.476Z,84.78
2023-05-21T00:14:22.900Z,83.34
2023-05-21T00:17:26.222Z,83.71
2023-05-21T00:20:29.339Z,83.51
2023-05-21T00:23:36.485Z,83.13
2023-05-21T00:26:38.507Z,83.23
2023-05-21T00:29:43.544Z,84.70
2023-05-21T00:32:47.752Z,84.71
2023-05-21T00:35:50.162Z,84.96
2023-05-21T00:38:52.297Z,86.28
2023-05-21T00:41:56.953Z,84.58
2023-05-21T00:45:00.019Z,84.61
2023-05-21T00:48:04.226Z,85.77
2023-05-21T00:51:07.658Z,87.08
2023-05-21T00:54:11.237Z,87.00
2023-05-21T00:57:14.455Z,87.15
2023-05-21T01:00:18.539Z,87.39
2023-05-21T01:03:21.044Z,87.00
2023-05-21T01:06:23.743Z,88.62
2023-05-21T01:09:26.730Z,88.58
2023-05-21T01:12:31.144Z,88.95
2023-05-21T01:15:33.384Z,88.93
2023-05-21T01:18:38.397Z,87.27
2023-05-21T01:21:44.364Z,85.57
2023-05-21T01:24:47.816Z,85.03
2023-05-21T01:27:50.407Z,85.32
2023-05-21T01:30:54.787Z,87.40
2023-05-21T01:34:01.158Z,87.17
2023-05-21T01:37:25.903Z,87.42
2023-05-21T01:40:46.616Z,88.41
2023-05-21T01:43:50.692Z,87.98
2023-05-21T01:46:54.562Z,88.61
2023-05-21T01:49:57.228Z,88.59
2023-05-21T01:53:01.128Z,89.12
2023-05-21T01:56:06.236Z,89.08
2023-05-21T01:59:10.249Z,88.73
2023-05-21T02:02:13.057Z,89.66
2023-05-21T02:05:15.592Z,90.57
2023-05-21T02:08:19.765Z,91.43
2023-05-21T02:11:22.379Z,90.10
2023-05-21T02:14:27.079Z,91.21
2023-05-21T02:17:34.222Z,93.47
2023-05-21T02:20:38.011Z,92.75
2023-05-21T02:23:41.732Z,92.25
2023-05-21T02:26:43.899Z,93.60
2023-05-21T02:29:46.556Z,92.46
2023-05-21T02:32:49.189Z,92.39
2023-05-21T02:35:53.852Z,92.75
2023-05-21T02:38:57.786Z,94.51
2023-05-21T02:42:00.446Z,92.71
2023-05-21T02:45:03.287Z,93.32
2023-05-21T02:48:06.121Z,92.00
2023-05-21T02:51:09.777Z,93.05
2023-05-21T02:54:13.287Z,91.96
2023-05-21T02:57:15.309Z,94.19
2023-05-21T03:00:17.751Z,92.81
2023-05-21T03:03:20.011Z,93.92
2023-05-21T03:06:22.835Z,93.87
2023-05-21T03:09:24.862Z,94.01
2023-05-21T03:12:27.282Z,94.23
2023-05-21T03:15:33.314Z,94.87
2023-05-21T03:18:35.825Z,94.33
2023-05-21T03:21:38.075Z,95.25
2023-05-21T03:24:41.478Z,94.37
2023-05-21T03:27:44.079Z,95.10
2023-05-21T03:30:49.709Z,95.27
2023-05-21T03:33:53.894Z,94.82
2023-05-21T03:36:56.579Z,94.45
2023-05-21T03:39:58.772Z,95.20
2023-05-21T03:43:01.207Z,95.46
2023-05-21T03:46:04.779Z,95.62
2023-05-21T03:49:09.806Z,94.87
2023-05-21T03:52:12.755Z,94.00
2023-05-21T03:55:15.683Z,92.41
2023-05-21T03:58:17.974Z,90.98
2023-05-21T04:01:24.156Z,91.62
2023-05-21T04:04:29.437Z,91.23
2023-05-21T04:07:31.807Z,88.45
2023-05-21T04:10:35.634Z,87.60
2023-05-21T04:13:38.533Z,86.64
2023-05-21T04:16:44.031Z,83.87
2023-05-21T04:19:46.355Z,83.32
2023-05-21T04:22:49.256Z,81.59
2023-05-21T04:25:51.413Z,78.40
2023-05-21T04:28:55.443Z,75.90
2023-05-21T04:31:59.354Z,74.92
2023-05-21T04:35:02.049Z,72.87
2023-05-21T04:38:06.025Z,71.82
2023-05-21T04:41:11.778Z,66.36
2023-05-21T04:44:14.960Z,57.42
2023-05-21T04:47:21.007Z,51.70
2023-05-21T04:50:24.309Z,48.05
2023-05-21T04:53:26.651Z,46.09
2023-05-21T04:56:29.617Z,42.10
2023-05-21T04:59:32.207Z,39.47
2023-05-21T05:02:34.393Z,38.62
2023-05-21T05:05:37.042Z,37.76
2023-05-21T05:08:39.283Z,36.00
2023-05-21T05:11:44.875Z,35.49
2023-05-21T05:14:47.017Z,34.32
2023-05-21T05:17:50.671Z,34.27
2023-05-21T05:20:52.778Z,32.99
2023-05-21T05:23:55.432Z,32.50
2023-05-21T05:26:58.297Z,32.26
2023-05-21T05:30:00.794Z,33.02
2023-05-21T05:33:03.093Z,32.44
2023-05-21T05:36:05.709Z,31.74
2023-05-21T05:39:07.741Z,30.13
2023-05-21T05:42:10.298Z,29.96
2023-05-21T05:45:12.539Z,29.21
2023-05-21T05:48:17.023Z,28.86
2023-05-21T05:51:19.296Z,29.35
2023-05-21T05:54:21.676Z,28.81
2023-05-21T05:57:23.821Z,27.90
2023-05-21T06:00:27.151Z,29.26
2023-05-21T06:03:29.849Z,30.04
2023-05-21T06:06:32.133Z,29.27
2023-05-21T06:09:34.438Z,29.08
2023-05-21T06:12:36.521Z,28.95
2023-05-21T06:15:43.103Z,28.39
2023-05-21T06:18:45.469Z,28.04
2023-05-21T06:21:48.181Z,28.80
2023-05-21T06:24:50.385Z,28.77
2023-05-21T06:27:52.893Z,29.81
2023-05-21T06:30:55.228Z,26.99
2023-05-21T06:33:57.702Z,26.33
2023-05-21T06:37:01.213Z,26.76
2023-05-21T06:40:04.101Z,27.49
2023-05-21T06:43:06.714Z,28.92
2023-05-21T06:46:30.329Z,28.73
2023-05-21T06:49:32.869Z,26.81
2023-05-21T06:52:35.460Z,27.05
2023-05-21T06:55:38.315Z,26.90
2023-05-21T06:58:41.553Z,26.13
2023-05-21T07:01:43.908Z,26.02
2023-05-21T07:04:46.727Z,25.62
2023-05-21T07:07:48.769Z,26.37
2023-05-21T07:10:51.163Z,25.36
2023-05-21T07:13:53.377Z,25.38
2023-05-21T07:16:56.010Z,25.85
2023-05-21T07:19:58.136Z,26.19
2023-05-21T07:23:00.802Z,24.91
2023-05-21T07:26:02.831Z,27.01
2023-05-21T07:29:05.561Z,25.81
2023-05-21T07:32:08.494Z,27.25
2023-05-21T07:35:11.229Z,26.71
2023-05-21T07:38:13.625Z,28.80
2023-05-21T07:41:18.445Z,26.62
2023-05-21T07:44:21.397Z,27.21
2023-05-21T07:47:23.998Z,28.85
2023-05-21T07:50:26.774Z,30.38
2023-05-21T07:53:32.322Z,30.12
2023-05-21T07:56:34.804Z,31.61
2023-05-21T07:59:37.632Z,32.99
2023-05-21T08:02:40.626Z,33.69
2023-05-21T08:05:48.975Z,33.63
2023-05-21T08:08:51.789Z,35.62
2023-05-21T08:11:54.308Z,36.85
2023-05-21T08:14:59.437Z,39.05
2023-05-21T08:18:02.453Z,38.49
2023-05-21T08:21:05.900Z,40.22
2023-05-21T08:24:08.545Z,40.09
2023-05-21T08:27:10.708Z,41.05
2023-05-21T08:30:13.418Z,40.13
2023-05-21T08:33:15.656Z,41.73
2023-05-21T08:36:19.411Z,42.50
2023-05-21T08:39:22.067Z,44.58
2023-05-21T08:45:41.500Z,44.89
2023-05-21T08:48:44.583Z,44.33
2023-05-21T08:51:47.132Z,44.44
2023-05-21T08:54:51.167Z,47.07
2023-05-21T08:57:54.040Z,46.10
2023-05-21T09:00:57.772Z,41.97
2023-05-21T09:04:12.308Z,44.22
2023-05-21T09:07:24.701Z,43.93
2023-05-21T09:10:35.854Z,42.71
2023-05-21T09:13:39.184Z,42.58
2023-05-21T09:16:42.389Z,41.75
2023-05-21T09:20:05.146Z,43.15
2023-05-21T09:23:12.415Z,43.89
2023-05-21T09:26:15.163Z,42.02
2023-05-21T09:29:17.294Z,42.11
2023-05-21T09:32:19.864Z,42.31
2023-05-21T09:35:22.141Z,40.96
2023-05-21T09:38:27.629Z,40.90
2023-05-21T09:41:33.713Z,40.88
2023-05-21T09:44:36.162Z,42.66
2023-05-21T09:47:43.523Z,41.11
2023-05-21T09:50:46.063Z,41.49
2023-05-21T09:53:51.991Z,41.73
2023-05-21T09:56:54.692Z,41.66
2023-05-21T09:59:56.865Z,40.83
2023-05-21T10:03:06.230Z,42.10
2023-05-21T10:06:09.972Z,42.87
2023-05-21T10:09:13.852Z,38.50
2023-05-21T10:12:17.797Z,38.70
2023-05-21T10:15:22.019Z,41.50
2023-05-21T10:18:24.727Z,39.41
2023-05-21T10:21:27.517Z,40.26
2023-05-21T10:24:30.118Z,43.34
2023-05-21T10:27:32.900Z,39.98
2023-05-21T10:30:36.309Z,39.46
2023-05-21T10:33:38.734Z,39.60
2023-05-21T10:36:41.310Z,39.30
2023-05-21T10:39:43.688Z,40.20
2023-05-21T10:42:49.002Z,39.65
2023-05-21T10:45:54.022Z,40.92
2023-05-21T10:49:11.883Z,41.08
2023-05-21T10:52:21.492Z,38.72
2023-05-21T10:55:23.779Z,41.90
2023-05-21T10:58:44.670Z,38.06
2023-05-21T11:01:47.572Z,38.82
2023-05-21T11:04:57.767Z,38.63
2023-05-21T11:08:01.648Z,38.94
2023-05-21T11:11:04.063Z,38.20
2023-05-21T11:14:25.897Z,37.60
2023-05-21T11:17:38.953Z,37.53
2023-05-21T11:20:44.733Z,37.41
2023-05-21T11:23:59.078Z,38.16
2023-05-21T11:27:04.476Z,40.18
2023-05-21T11:30:10.842Z,36.99
2023-05-21T11:33:14.050Z,40.46
2023-05-21T11:36:16.408Z,38.49
2023-05-21T11:39:22.334Z,36.72
2023-05-21T11:42:28.808Z,35.98
2023-05-21T11:45:32.830Z,36.47
2023-05-21T11:48:36.698Z,36.28
2023-05-21T11:51:40.412Z,35.01
2023-05-21T11:54:48.401Z,35.85
2023-05-21T11:57:52.801Z,35.91
2023-05-21T12:00:55.020Z,36.46
2023-05-21T12:03:57.656Z,34.89
2023-05-21T12:07:03.495Z,36.38
2023-05-21T12:10:06.698Z,37.43
2023-05-21T12:13:08.762Z,38.35
2023-05-21T12:16:11.876Z,36.68
2023-05-21T12:19:17.357Z,35.51
2023-05-21T12:22:19.968Z,36.32
2023-05-21T12:25:22.300Z,37.96
2023-05-21T12:28:25.135Z,37.04
2023-05-21T12:31:30.030Z,37.37
2023-05-21T12:34:39.009Z,41.96
2023-05-21T12:37:41.157Z,38.75
2023-05-21T12:40:45.415Z,37.38
2023-05-21T12:43:47.565Z,37.24
2023-05-21T12:46:50.933Z,37.42
2023-05-21T12:50:03.263Z,38.68
2023-05-21T12:53:10.841Z,36.00
2023-05-21T12:56:13.574Z,38.03
2023-05-21T12:59:16.120Z,36.38
2023-05-21T13:02:37.238Z,39.45
2023-05-21T13:05:40.725Z,36.17
2023-05-21T13:08:42.783Z,38.32
2023-05-21T13:11:45.171Z,37.08
2023-05-21T13:14:47.167Z,34.89
2023-05-21T13:17:50.681Z,35.82
2023-05-21T13:20:53.835Z,36.86
2023-05-21T13:23:56.187Z,38.30
2023-05-21T13:26:58.364Z,37.28
2023-05-21T13:30:01.057Z,35.62
2023-05-21T13:33:05.455Z,35.26
2023-05-21T13:36:07.801Z,36.71
2023-05-21T13:39:09.795Z,35.58
2023-05-21T13:42:12.112Z,36.54
2023-05-21T13:45:14.906Z,39.43
2023-05-21T13:48:17.368Z,36.14
2023-05-21T13:51:34.518Z,36.17
2023-05-21T13:54:40.526Z,39.00
2023-05-21T13:57:42.723Z,38.99
2023-05-21T14:00:45.132Z,36.87
2023-05-21T14:03:47.523Z,38.20
2023-05-21T14:06:49.880Z,36.68
2023-05-21T14:09:52.624Z,38.29
2023-05-21T14:12:59.177Z,37.82
2023-05-21T14:16:07.416Z,37.26
2023-05-21T14:19:09.567Z,39.04
2023-05-21T14:22:11.917Z,37.21
2023-05-21T14:25:14.004Z,37.83
2023-05-21T14:28:16.317Z,37.70
2023-05-21T14:31:19.109Z,39.18
2023-05-21T14:34:21.539Z,38.23
2023-05-21T14:37:23.635Z,37.21
2023-05-21T14:40:26.100Z,37.75
2023-05-21T14:43:28.281Z,38.15
2023-05-21T14:46:30.938Z,39.15
2023-05-21T14:49:33.209Z,36.37
2023-05-21T14:52:35.549Z,39.27
2023-05-21T14:55:38.378Z,39.96
2023-05-21T14:58:41.140Z,40.06
2023-05-21T15:01:43.452Z,42.84
2023-05-21T15:04:45.866Z,38.65
2023-05-21T15:07:47.869Z,40.63
2023-05-21T15:10:50.247Z,38.92
2023-05-21T15:13:52.247Z,40.89
2023-05-21T15:16:54.720Z,40.07
2023-05-21T15:19:56.878Z,39.70
2023-05-21T15:23:12.733Z,40.03
2023-05-21T15:26:18.798Z,39.82
2023-05-21T15:29:21.184Z,40.72
2023-05-21T15:32:23.325Z,39.67
2023-05-21T15:35:25.986Z,40.61
2023-05-21T15:38:28.127Z,42.66
2023-05-21T15:41:34.874Z,41.81
2023-05-21T15:44:37.306Z,42.50
2023-05-21T15:47:42.667Z,43.53
2023-05-21T15:50:45.262Z,44.61
2023-05-21T15:53:47.673Z,43.43
2023-05-21T15:56:49.978Z,42.58
2023-05-21T15:59:52.897Z,44.15
2023-05-21T16:02:55.081Z,45.62
2023-05-21T16:05:57.515Z,43.96
2023-05-21T16:08:59.911Z,46.37
2023-05-21T16:12:02.380Z,42.51
2023-05-21T16:15:04.936Z,40.74
2023-05-21T16:18:08.520Z,40.65
2023-05-21T16:21:11.060Z,40.40
2023-05-21T16:24:13.430Z,41.57
2023-05-21T16:27:15.489Z,41.72
2023-05-21T16:30:17.924Z,41.96
2023-05-21T16:33:19.943Z,41.70
2023-05-21T16:36:22.371Z,43.78
2023-05-21T16:39:24.496Z,41.81
2023-05-21T16:42:27.079Z,43.00
2023-05-21T16:45:34.980Z,43.58
2023-05-21T16:48:39.322Z,44.66
2023-05-21T16:51:41.474Z,45.61
2023-05-21T16:54:48.624Z,46.40
2023-05-21T16:57:50.700Z,46.73
2023-05-21T17:00:53.152Z,44.10
2023-05-21T17:03:56.546Z,45.63
2023-05-21T17:06:58.960Z,47.33
2023-05-21T17:10:01.073Z,44.96
2023-05-21T17:13:20.784Z,44.88
2023-05-21T17:16:24.950Z,46.75
2023-05-21T17:19:27.606Z,46.41
2023-05-21T17:22:29.724Z,44.90
2023-05-21T17:25:34.317Z,46.78
2023-05-21T17:28:36.923Z,45.72
2023-05-21T17:31:39.379Z,49.12
2023-05-21T17:34:41.428Z,49.65
2023-05-21T17:37:43.870Z,48.56
2023-05-21T17:40:45.898Z,48.72
2023-05-21T17:43:48.272Z,50.25
2023-05-21T17:46:50.774Z,51.41
2023-05-21T17:49:53.174Z,53.51
2023-05-21T17:52:56.078Z,54.54
2023-05-21T17:55:58.538Z,55.08
2023-05-21T17:59:00.671Z,53.09
2023-05-21T18:02:03.109Z,55.88
2023-05-21T18:05:05.660Z,56.39
2023-05-21T18:08:09.885Z,54.96
2023-05-21T18:11:12.302Z,56.65
2023-05-21T18:14:14.282Z,56.91
2023-05-21T18:17:16.578Z,58.00
2023-05-21T18:20:18.656Z,58.23
2023-05-21T18:23:21.078Z,59.26
2023-05-21T18:26:23.200Z,58.78
2023-05-21T18:29:25.490Z,59.46
2023-05-21T18:32:27.714Z,58.31
2023-05-21T18:35:31.089Z,58.50
2023-05-21T18:38:33.743Z,59.44
2023-05-21T18:41:37.245Z,60.34
2023-05-21T18:44:39.545Z,60.68
2023-05-21T18:47:42.977Z,61.39
2023-05-21T18:50:45.130Z,62.22
2023-05-21T18:53:47.705Z,61.54
2023-05-21T18:56:49.672Z,62.51
2023-05-21T18:59:52.022Z,62.90
2023-05-21T19:02:54.894Z,64.16
2023-05-21T19:05:57.501Z,67.69
2023-05-21T19:08:59.526Z,69.37
2023-05-21T19:12:02.110Z,71.23
2023-05-21T19:15:04.446Z,70.71
2023-05-21T19:18:06.972Z,72.39
2023-05-21T19:21:09.266Z,73.66
2023-05-21T19:24:11.758Z,73.93
2023-05-21T19:27:13.805Z,75.08
2023-05-21T19:30:16.282Z,75.41
2023-05-21T19:33:18.422Z,76.53
2023-05-21T19:36:21.275Z,77.63
2023-05-21T19:39:23.277Z,77.54
2023-05-21T19:42:25.712Z,78.00
2023-05-21T19:45:27.719Z,78.55
2023-05-21T19:48:29.984Z,78.10
2023-05-21T19:51:32.400Z,79.42
2023-05-21T19:54:34.902Z,80.59
2023-05-21T19:57:37.216Z,79.34
2023-05-21T20:00:40.173Z,78.96
2023-05-21T20:03:44.854Z,81.33
2023-05-21T20:06:46.970Z,82.19
2023-05-21T20:09:49.292Z,82.99
2023-05-21T20:12:51.333Z,83.09
2023-05-21T20:15:53.661Z,83.74
2023-05-21T20:18:57.941Z,83.92
2023-05-21T20:22:00.378Z,83.77
2023-05-21T20:25:03.824Z,85.06
2023-05-21T20:28:08.033Z,85.53
2023-05-21T20:31:11.276Z,85.86
2023-05-21T20:34:13.654Z,86.49
2023-05-21T20:37:15.712Z,85.77
2023-05-21T20:40:19.007Z,86.18
2023-05-21T20:43:21.691Z,86.75
2023-05-21T20:46:25.641Z,87.68
2023-05-21T20:49:28.503Z,86.25
2023-05-21T20:52:31.054Z,87.69
2023-05-21T20:55:34.794Z,87.82
2023-05-21T20:58:39.861Z,87.29
2023-05-21T21:01:42.601Z,87.03
2023-05-21T21:04:45.901Z,86.16
2023-05-21T21:07:48.062Z,86.31
2023-05-21T21:10:50.546Z,87.50
2023-05-21T21:13:52.854Z,87.79
2023-05-21T21:16:55.292Z,89.32
2023-05-21T21:19:57.373Z,88.67
2023-05-21T21:22:59.776Z,87.66
2023-05-21T21:26:01.817Z,86.57
2023-05-21T21:29:04.162Z,87.54
2023-05-21T21:32:06.403Z,86.16
2023-05-21T21:35:10.090Z,87.22
2023-05-21T21:38:12.112Z,90.01
2023-05-21T21:41:14.763Z,90.56
2023-05-21T21:44:16.899Z,90.80
2023-05-21T21:47:19.227Z,91.18
2023-05-21T21:50:21.470Z,90.58
2023-05-21T21:53:23.809Z,88.29
2023-05-21T21:56:26.210Z,87.55
2023-05-21T21:59:28.609Z,86.83
2023-05-21T22:02:30.687Z,87.73
2023-05-21T22:05:33.969Z,83.89
2023-05-21T22:08:35.967Z,83.69
2023-05-21T22:11:38.471Z,83.79
2023-05-21T22:14:40.490Z,82.92
2023-05-21T22:17:42.934Z,82.66
2023-05-21T22:20:46.104Z,82.39
2023-05-21T22:23:48.467Z,81.76
2023-05-21T22:26:50.555Z,80.41
2023-05-21T22:29:52.869Z,80.41
2023-05-21T22:32:56.623Z,80.45
2023-05-21T22:35:59.010Z,80.99
2023-05-21T22:39:01.055Z,81.83
2023-05-21T22:42:03.991Z,81.13
2023-05-21T22:45:06.768Z,81.07
2023-05-21T22:48:09.593Z,80.68
2023-05-21T22:51:11.879Z,82.71
2023-05-21T22:54:14.277Z,82.04
2023-05-21T22:57:16.373Z,83.15
2023-05-21T23:00:21.458Z,81.80
2023-05-21T23:03:23.538Z,81.98
2023-05-21T23:06:25.938Z,82.36
2023-05-21T23:09:27.979Z,81.70
2023-05-21T23:12:30.479Z,80.39
2023-05-21T23:15:32.589Z,79.50
2023-05-21T23:18:35.103Z,80.13
2023-05-21T23:21:37.353Z,80.86
2023-05-21T23:24:39.717Z,83.14
2023-05-21T23:27:41.741Z,83.19
2023-05-21T23:30:44.191Z,82.87
2023-05-21T23:33:46.301Z,82.51
2023-05-21T23:36:48.667Z,84.67
2023-05-21T23:39:51.406Z,85.03
2023-05-21T23:42:53.891Z,84.41
2023-05-21T23:45:55.896Z,84.87
2023-05-21T23:48:58.394Z,84.79
2023-05-21T23:52:01.496Z,85.50
2023-05-21T23:55:03.942Z,86.49
2023-05-21T23:58:06.034Z,87.51
